Terminal Aerodrome Forecast
Issued by NWS

Home | Current Version | Previous Version | Text Only | Print | Product List | Glossary On
Versions: 1 2 3 4 5 6 7 8 9 10 11 12 13 14 15 16 17 18 19
047
FTUS43 KICT 130520
TAFSLN
TAF
KSLN 130520Z 1306/1406 05011KT P6SM BKN100
     FM131200 10008KT P6SM BKN120
     FM131800 14012KT P6SM BKN050
     FM132300 14011KT P6SM SCT250=

USA.gov is the U.S. government's official web portal to all federal, state and local government web resources and services.